Time;durP1;ratioP1;P1;durP2;ratioP2;P2;SDS_P1;SDS_P2;PMS_P1;PMS_P2;Temp;Humidity;BMP_temperature;BMP_pressure;BME280_temperature;BME280_humidity;BME280_pressure;Samples;Min_cycle;Max_cycle;Signal;HPM_P1;HPM_P2
2024/04/12 00:01:10;;;;;;;6.27;4.63;;;6.70;13.50;;;;;;5310148;26;21083;-70
2024/04/12 00:03:38;;;;;;;8.87;4.40;;;6.70;14.30;;;;;;5339920;26;20224;-70
2024/04/12 00:06:20;;;;;;;9.23;5.53;;;6.70;14.70;;;;;;5341310;26;20584;-71
2024/04/12 00:08:50;;;;;;;6.13;5.00;;;6.60;15.70;;;;;;5340791;26;20565;-69
2024/04/12 00:11:20;;;;;;;7.40;4.37;;;6.60;16.40;;;;;;5309936;26;20588;-69
2024/04/12 00:13:48;;;;;;;6.73;4.33;;;6.60;16.90;;;;;;5340004;26;20824;-69
2024/04/12 00:16:17;;;;;;;7.40;5.00;;;6.60;16.90;;;;;;5339541;26;20452;-69
2024/04/12 00:18:47;;;;;;;8.03;4.70;;;6.60;16.90;;;;;;5339984;26;20504;-69
2024/04/12 00:21:14;;;;;;;7.07;5.00;;;6.50;16.90;;;;;;5340695;26;20462;-69
2024/04/12 00:23:40;;;;;;;10.80;5.60;;;6.50;17.20;;;;;;5340115;26;20491;-70
2024/04/12 00:26:06;;;;;;;8.93;5.33;;;6.50;17.20;;;;;;5340452;26;20453;-69
2024/04/12 00:28:33;;;;;;;10.03;4.80;;;6.50;16.80;;;;;;5340894;26;20328;-69
2024/04/12 00:30:59;;;;;;;8.37;5.47;;;6.50;16.80;;;;;;5341058;26;20221;-69
2024/04/12 00:33:32;;;;;;;7.80;5.03;;;6.50;16.80;;;;;;5309795;26;20551;-69
2024/04/12 00:36:07;;;;;;;9.83;4.70;;;6.50;17.50;;;;;;5340924;26;20517;-71
2024/04/12 00:38:35;;;;;;;6.60;3.97;;;6.40;17.70;;;;;;5340141;26;20918;-69
2024/04/12 00:41:14;;;;;;;5.10;4.53;;;6.40;18.20;;;;;;5340716;26;20507;-69
2024/04/12 00:43:47;;;;;;;6.60;4.43;;;6.40;18.10;;;;;;5340328;26;20456;-68
2024/04/12 00:46:23;;;;;;;7.07;4.00;;;6.30;17.60;;;;;;5340021;26;20571;-71
2024/04/12 00:48:51;;;;;;;9.70;5.50;;;6.20;18.00;;;;;;5340387;26;20229;-70
2024/04/12 00:51:18;;;;;;;11.00;4.17;;;6.20;17.70;;;;;;5340753;26;20452;-69
2024/04/12 00:53:50;;;;;;;6.67;5.30;;;6.20;18.50;;;;;;5340336;26;20553;-68
2024/04/12 00:56:16;;;;;;;7.20;4.43;;;6.10;18.00;;;;;;5341011;26;20971;-70
2024/04/12 00:58:47;;;;;;;7.50;4.93;;;6.10;18.90;;;;;;5340770;26;20452;-69
2024/04/12 01:01:17;;;;;;;10.48;5.82;;;6.10;19.30;;;;;;5340593;26;20237;-69
2024/04/12 01:03:46;;;;;;;6.63;4.80;;;6.10;18.90;;;;;;5340563;26;20281;-70
2024/04/12 01:06:16;;;;;;;9.35;5.05;;;6.10;20.80;;;;;;5310460;26;20539;-70
2024/04/12 01:08:45;;;;;;;8.27;5.93;;;6.10;20.80;;;;;;5340339;26;20271;-69
2024/04/12 01:11:12;;;;;;;9.25;5.35;;;6.10;21.40;;;;;;5341447;26;20451;-70
2024/04/12 01:13:39;;;;;;;7.60;4.87;;;6.10;22.30;;;;;;5341190;26;20795;-69
2024/04/12 01:16:06;;;;;;;8.33;5.67;;;6.10;21.90;;;;;;5341900;26;20827;-70
2024/04/12 01:18:34;;;;;;;6.90;5.40;;;6.10;21.90;;;;;;5343883;26;20843;-69
2024/04/12 01:21:00;;;;;;;13.50;5.93;;;6.10;22.30;;;;;;5344656;26;20448;-69
2024/04/12 01:23:27;;;;;;;8.47;6.30;;;6.20;21.60;;;;;;5311090;26;20507;-68
2024/04/12 01:25:56;;;;;;;12.70;5.13;;;6.10;22.00;;;;;;5340953;26;20453;-69
2024/04/12 01:28:22;;;;;;;8.80;6.50;;;6.10;22.00;;;;;;5339973;26;20509;-69
2024/04/12 01:30:47;;;;;;;7.00;5.17;;;6.10;22.00;;;;;;5340344;26;20591;-71
2024/04/12 01:33:13;;;;;;;9.40;5.30;;;6.10;21.70;;;;;;5340463;26;20492;-70
2024/04/12 01:35:42;;;;;;;8.40;6.13;;;6.10;22.00;;;;;;5340813;26;20228;-70
2024/04/12 01:38:19;;;;;;;9.82;6.65;;;6.00;22.30;;;;;;5422008;21;20603;-71
2024/04/12 01:40:57;;;;;;;7.78;6.13;;;6.00;22.70;;;;;;5423531;26;20345;-70
2024/04/12 01:43:26;;;;;;;7.90;5.67;;;5.90;22.70;;;;;;5393222;26;20332;-71
2024/04/12 01:45:54;;;;;;;6.80;5.35;;;5.90;23.40;;;;;;5421947;26;20543;-71
2024/04/12 01:48:22;;;;;;;8.35;5.95;;;5.90;23.70;;;;;;5422580;26;20237;-72
2024/04/12 01:50:51;;;;;;;8.63;5.85;;;5.90;24.80;;;;;;5391199;26;20838;-70
2024/04/12 01:53:17;;;;;;;7.63;5.82;;;5.90;24.80;;;;;;5422393;26;20226;-71
2024/04/12 01:55:46;;;;;;;8.07;5.50;;;5.90;24.60;;;;;;5422687;26;20318;-71
2024/04/12 01:58:12;;;;;;;9.25;6.90;;;5.80;24.80;;;;;;5422093;26;20237;-72
2024/04/12 02:00:37;;;;;;;11.20;7.23;;;5.80;24.80;;;;;;5389989;26;20267;-72
2024/04/12 02:03:05;;;;;;;9.60;5.53;;;5.90;24.80;;;;;;5390386;26;20471;-72
2024/04/12 02:05:33;;;;;;;8.35;5.75;;;5.90;24.80;;;;;;5391358;26;20281;-71
2024/04/12 02:08:07;;;;;;;10.25;6.03;;;5.80;24.80;;;;;;5422877;26;20264;-70
2024/04/12 02:10:34;;;;;;;10.48;6.65;;;5.80;24.80;;;;;;5391577;26;20330;-71
2024/04/12 02:12:59;;;;;;;9.07;6.30;;;5.80;23.60;;;;;;5391037;26;20276;-71
2024/04/12 02:15:25;;;;;;;7.70;6.30;;;5.70;23.60;;;;;;5422828;26;20221;-71
2024/04/12 02:17:57;;;;;;;9.05;5.90;;;5.70;23.20;;;;;;5423973;26;20310;-72
2024/04/12 02:20:36;;;;;;;9.70;5.88;;;5.60;23.80;;;;;;5423046;26;20773;-71
2024/04/12 02:23:06;;;;;;;9.40;5.78;;;5.50;23.60;;;;;;5423428;26;20238;-72
2024/04/12 02:25:39;;;;;;;10.63;7.03;;;5.50;23.70;;;;;;5392667;26;20232;-71
2024/04/12 02:28:08;;;;;;;8.35;6.43;;;5.50;24.60;;;;;;5393489;26;20270;-69
2024/04/12 02:30:55;;;;;;;8.18;6.10;;;5.50;24.10;;;;;;5424429;26;20267;-72
2024/04/12 02:33:25;;;;;;;8.27;6.28;;;5.50;24.20;;;;;;5424303;26;20220;-70
2024/04/12 02:36:17;;;;;;;7.85;5.45;;;5.50;24.50;;;;;;5426499;26;20226;-71
2024/04/12 02:38:50;;;;;;;9.95;6.05;;;5.40;24.90;;;;;;5434674;26;20693;-70
2024/04/12 02:41:16;;;;;;;10.43;7.10;;;5.40;24.50;;;;;;5404098;26;20233;-71
2024/04/12 02:43:56;;;;;;;9.20;6.50;;;5.50;24.60;;;;;;5434272;26;20224;-70
2024/04/12 02:46:24;;;;;;;12.02;6.38;;;5.50;25.10;;;;;;5434258;26;20255;-71
2024/04/12 02:48:50;;;;;;;7.95;5.53;;;5.50;25.30;;;;;;5403069;26;20233;-72
2024/04/12 02:51:22;;;;;;;8.95;7.20;;;5.40;25.10;;;;;;5432005;26;20626;-72
2024/04/12 02:53:50;;;;;;;10.18;7.15;;;5.50;26.40;;;;;;5423926;26;20276;-71
2024/04/12 02:56:17;;;;;;;7.80;5.97;;;5.50;27.10;;;;;;5391259;26;20298;-71
2024/04/12 02:58:48;;;;;;;10.20;6.65;;;5.50;27.70;;;;;;5390652;26;20604;-71
2024/04/12 03:01:16;;;;;;;7.72;6.55;;;5.50;27.70;;;;;;5422959;26;20225;-71
2024/04/12 03:03:50;;;;;;;9.85;6.22;;;5.50;28.70;;;;;;5391263;26;20280;-71
2024/04/12 03:06:23;;;;;;;9.95;6.68;;;5.50;28.00;;;;;;5390867;26;20233;-70
2024/04/12 03:08:59;;;;;;;10.30;8.05;;;5.40;28.10;;;;;;5390874;26;20239;-72
2024/04/12 03:11:28;;;;;;;7.82;5.22;;;5.40;28.60;;;;;;5391184;26;20232;-72
2024/04/12 03:14:07;;;;;;;6.95;5.60;;;5.40;28.20;;;;;;5389001;26;20233;-72
2024/04/12 03:16:33;;;;;;;10.07;7.90;;;5.40;27.80;;;;;;5420804;26;20711;-72
2024/04/12 03:18:59;;;;;;;9.70;6.78;;;5.40;26.80;;;;;;5420276;26;20788;-72
2024/04/12 03:21:26;;;;;;;10.87;7.83;;;5.40;26.70;;;;;;5420330;26;20230;-72
2024/04/12 03:23:57;;;;;;;8.75;6.50;;;5.30;27.40;;;;;;5419819;26;20225;-71
2024/04/12 03:26:23;;;;;;;9.82;7.85;;;5.30;27.00;;;;;;5389225;26;20228;-71
2024/04/12 03:28:53;;;;;;;12.55;7.65;;;5.30;27.80;;;;;;5420602;26;20248;-72
2024/04/12 03:31:19;;;;;;;8.88;5.97;;;5.30;27.80;;;;;;5388473;26;20226;-72
2024/04/12 03:33:44;;;;;;;11.60;7.00;;;5.20;28.50;;;;;;5388117;26;20267;-71
2024/04/12 03:36:53;;;;;;;10.23;7.60;;;5.20;28.50;;;;;;5420137;26;20225;-70
2024/04/12 03:41:57;;;;;;;11.00;6.80;;;5.20;28.00;;;;;;5421370;26;20800;-73
2024/04/12 03:44:42;;;;;;;9.77;7.25;;;5.20;28.40;;;;;;5390915;26;20234;-72
2024/04/12 03:47:08;;;;;;;8.18;6.70;;;5.10;27.90;;;;;;5422138;26;20274;-70
2024/04/12 03:49:38;;;;;;;10.07;8.35;;;5.00;27.70;;;;;;5390709;26;20288;-72
2024/04/12 03:52:11;;;;;;;11.68;8.05;;;5.00;28.30;;;;;;5421921;26;20229;-72
2024/04/12 03:54:37;;;;;;;13.15;8.63;;;5.00;28.30;;;;;;5391769;26;20232;-71
2024/04/12 03:57:06;;;;;;;10.48;6.78;;;5.00;28.30;;;;;;5392280;26;20243;-72
2024/04/12 03:59:36;;;;;;;13.48;8.15;;;4.90;28.30;;;;;;5392473;26;20595;-71
2024/04/12 04:02:09;;;;;;;9.38;7.43;;;4.90;29.50;;;;;;5391850;26;20270;-72
2024/04/12 04:04:45;;;;;;;8.95;6.97;;;4.80;28.90;;;;;;5391405;26;20227;-72
2024/04/12 04:07:14;;;;;;;10.80;7.93;;;4.80;30.50;;;;;;5390212;26;20346;-72
2024/04/12 04:09:42;;;;;;;10.10;7.00;;;4.80;30.00;;;;;;5420799;26;20258;-71
2024/04/12 04:12:14;;;;;;;13.23;8.50;;;4.80;29.90;;;;;;5389328;26;20302;-70
2024/04/12 04:14:47;;;;;;;13.98;8.57;;;4.80;30.00;;;;;;5388132;26;20255;-73
2024/04/12 04:17:18;;;;;;;12.15;8.73;;;4.80;30.80;;;;;;5388526;26;20239;-71
2024/04/12 04:19:45;;;;;;;10.50;7.85;;;4.80;31.60;;;;;;5388787;26;20259;-71
2024/04/12 04:24:55;;;;;;;16.13;7.88;;;4.80;32.00;;;;;;5419183;26;20711;-71
2024/04/12 04:27:21;;;;;;;13.60;7.60;;;4.90;32.10;;;;;;5388152;26;20290;-72
2024/04/12 04:29:50;;;;;;;8.02;7.13;;;4.90;32.90;;;;;;5388837;26;20266;-71
2024/04/12 04:32:20;;;;;;;9.85;8.05;;;4.90;33.50;;;;;;5421583;26;20224;-70
2024/04/12 04:34:46;;;;;;;11.77;8.20;;;4.90;32.90;;;;;;5389749;26;20326;-71
2024/04/12 04:37:12;;;;;;;11.93;9.33;;;4.90;31.60;;;;;;5420581;26;20232;-71
2024/04/12 04:39:38;;;;;;;12.93;8.83;;;5.00;32.20;;;;;;5389856;26;20459;-71
2024/04/12 04:42:05;;;;;;;18.30;10.70;;;5.00;31.50;;;;;;5420371;26;20535;-70
2024/04/12 04:44:31;;;;;;;10.70;7.60;;;5.10;30.10;;;;;;5391265;26;20270;-71
2024/04/12 04:46:57;;;;;;;13.50;10.00;;;5.10;31.00;;;;;;5392735;26;20248;-71
2024/04/12 04:49:23;;;;;;;16.87;11.13;;;5.20;29.30;;;;;;5392477;26;20797;-71
2024/04/12 04:51:49;;;;;;;13.87;8.87;;;5.30;29.10;;;;;;5392532;26;20225;-71
2024/04/12 04:54:16;;;;;;;12.30;7.97;;;5.30;29.70;;;;;;5424029;26;20230;-71
2024/04/12 04:56:43;;;;;;;8.88;7.53;;;5.30;29.40;;;;;;5390791;26;20978;-71
2024/04/12 04:59:16;;;;;;;11.85;6.78;;;5.40;29.30;;;;;;5422930;26;20296;-71
2024/04/12 05:01:52;;;;;;;11.13;7.95;;;5.40;30.30;;;;;;5431610;26;20273;-72
2024/04/12 05:04:20;;;;;;;12.77;9.55;;;5.50;29.20;;;;;;5403092;26;20224;-70
2024/04/12 05:06:52;;;;;;;8.98;6.78;;;5.60;27.30;;;;;;5433305;26;20241;-70
2024/04/12 05:09:18;;;;;;;10.70;7.60;;;5.70;27.20;;;;;;5397240;26;20234;-71
2024/04/12 05:11:50;;;;;;;9.45;8.02;;;5.80;25.50;;;;;;5424472;26;20323;-70
2024/04/12 05:17:05;;;;;;;10.40;7.97;;;6.00;25.80;;;;;;5422469;26;20275;-73
2024/04/12 05:19:31;;;;;;;9.70;7.67;;;6.10;25.00;;;;;;5390586;26;20460;-71
2024/04/12 05:21:59;;;;;;;16.13;9.07;;;6.30;24.80;;;;;;5390645;26;21016;-70
2024/04/12 05:24:25;;;;;;;11.63;8.20;;;6.40;24.20;;;;;;5389764;26;20315;-71
2024/04/12 05:27:01;;;;;;;12.90;8.40;;;6.60;23.50;;;;;;5421498;26;20282;-71
2024/04/12 05:29:28;;;;;;;9.33;7.80;;;6.80;20.00;;;;;;5390036;26;20464;-72
2024/04/12 05:31:56;;;;;;;12.43;7.47;;;7.50;19.90;;;;;;5391661;26;20971;-72
2024/04/12 05:34:22;;;;;;;14.30;8.20;;;;;;;;;;5424475;26;20523;-70
2024/04/12 05:36:48;;;;;;;21.73;9.10;;;10.80;1.00;;;;;;5426009;26;20456;-70
2024/04/12 05:39:19;;;;;;;8.73;5.87;;;11.80;1.00;;;;;;5397201;26;20566;-70
2024/04/12 05:41:45;;;;;;;8.70;6.20;;;12.40;1.00;;;;;;5431761;26;20443;-72
2024/04/12 05:44:18;;;;;;;8.70;5.50;;;12.20;1.00;;;;;;5429301;26;20444;-72
2024/04/12 05:46:45;;;;;;;8.93;5.70;;;11.80;1.00;;;;;;5394893;26;20475;-72
2024/04/12 05:49:14;;;;;;;8.70;5.30;;;11.70;1.00;;;;;;5394972;26;20626;-72
2024/04/12 05:51:43;;;;;;;9.70;6.87;;;11.70;1.00;;;;;;5396590;26;20455;-72
2024/04/12 05:54:15;;;;;;;12.27;5.47;;;11.80;1.00;;;;;;5425091;26;20456;-71
2024/04/12 05:56:44;;;;;;;12.23;7.13;;;11.90;1.00;;;;;;5427293;26;20646;-72
2024/04/12 05:59:13;;;;;;;6.40;5.27;;;12.60;1.00;;;;;;5430631;26;20449;-69
2024/04/12 06:01:43;;;;;;;9.03;6.27;;;13.90;1.00;;;;;;5399712;26;20529;-71
2024/04/12 06:04:11;;;;;;;6.17;4.90;;;14.70;1.00;;;;;;5431195;26;20452;-71
2024/04/12 06:06:44;;;;;;;8.90;5.83;;;15.20;1.00;;;;;;5401182;26;20496;-71
2024/04/12 06:09:20;;;;;;;7.23;5.80;;;15.80;1.00;;;;;;5399483;26;20464;-71
2024/04/12 06:11:56;;;;;;;7.63;5.03;;;16.00;1.00;;;;;;5399607;26;20515;-72
2024/04/12 06:14:24;;;;;;;9.33;5.30;;;15.90;1.00;;;;;;5426410;26;20533;-71
2024/04/12 06:16:56;;;;;;;8.67;6.40;;;15.40;1.00;;;;;;5417956;26;20871;-70
2024/04/12 06:19:25;;;;;;;5.67;4.53;;;16.30;1.00;;;;;;5428410;26;20453;-71
2024/04/12 06:21:51;;;;;;;11.60;6.03;;;16.60;1.00;;;;;;5399466;26;20540;-71
2024/04/12 06:24:26;;;;;;;10.43;5.50;;;17.70;1.00;;;;;;5397591;26;20465;-71
2024/04/12 06:26:54;;;;;;;6.70;5.50;;;18.80;1.00;;;;;;5426998;26;20315;-70
2024/04/12 06:29:22;;;;;;;8.40;5.87;;;19.80;1.00;;;;;;5425911;26;20560;-71
2024/04/12 06:31:50;;;;;;;5.50;4.93;;;20.00;1.00;;;;;;5424103;26;20568;-71
2024/04/12 06:34:19;;;;;;;8.57;7.27;;;19.90;1.00;;;;;;5425748;26;20496;-71
2024/04/12 06:36:46;;;;;;;8.13;5.80;;;19.40;1.00;;;;;;5426849;26;20557;-70
2024/04/12 06:39:13;;;;;;;5.40;4.90;;;18.60;1.00;;;;;;5396863;26;20457;-71
2024/04/12 06:41:45;;;;;;;8.87;4.57;;;17.90;1.00;;;;;;5398954;26;20505;-70
2024/04/12 06:44:15;;;;;;;12.93;5.40;;;17.90;1.00;;;;;;5429113;26;20518;-71
2024/04/12 06:46:44;;;;;;;9.50;5.90;;;19.10;1.00;;;;;;5396681;26;20504;-70
2024/04/12 06:49:14;;;;;;;6.57;5.23;;;;;;;;;;5425892;26;20449;-71
2024/04/12 06:52:08;;;;;;;10.37;6.57;;;21.00;1.00;;;;;;5395330;26;20465;-70
2024/04/12 06:54:35;;;;;;;5.57;4.90;;;22.00;1.00;;;;;;5426044;26;20976;-72
2024/04/12 06:57:04;;;;;;;8.07;5.90;;;20.90;1.00;;;;;;5395165;26;20550;-71
2024/04/12 06:59:35;;;;;;;5.27;4.73;;;21.80;1.00;;;;;;5391026;26;20503;-72
2024/04/12 07:02:02;;;;;;;6.43;5.30;;;;;;;;;;5421165;26;20449;-71
2024/04/12 07:04:28;;;;;;;5.63;5.13;;;24.20;1.00;;;;;;5420064;26;20449;-71
2024/04/12 07:06:56;;;;;;;7.27;5.53;;;24.40;1.00;;;;;;5418099;26;21096;-72
2024/04/12 07:09:22;;;;;;;5.10;4.60;;;24.90;1.00;;;;;;5419680;26;20536;-72
2024/04/12 07:11:51;;;;;;;7.33;5.47;;;;;;;;;;5387139;26;20445;-71
2024/04/12 07:14:22;;;;;;;5.80;5.20;;;26.30;1.00;;;;;;5418369;26;20550;-71
2024/04/12 07:16:48;;;;;;;9.00;5.90;;;26.70;1.00;;;;;;5418682;26;20545;-73
2024/04/12 07:19:14;;;;;;;8.27;6.30;;;26.90;1.00;;;;;;5419451;26;20445;-71
2024/04/12 07:21:40;;;;;;;6.43;5.83;;;26.40;1.00;;;;;;5387555;26;20473;-72
2024/04/12 07:24:06;;;;;;;8.40;6.67;;;26.40;1.00;;;;;;5420030;26;20227;-70
2024/04/12 07:26:32;;;;;;;8.03;7.23;;;27.10;1.00;;;;;;5419689;26;20495;-71
2024/04/12 07:29:01;;;;;;;8.10;6.80;;;26.00;1.00;;;;;;5390735;26;20963;-71
2024/04/12 07:31:34;;;;;;;6.73;6.17;;;25.30;1.00;;;;;;5391726;26;20461;-71
2024/04/12 07:34:05;;;;;;;5.60;5.10;;;24.60;1.00;;;;;;5423365;26;20450;-71
2024/04/12 07:36:31;;;;;;;7.40;6.63;;;23.20;1.00;;;;;;5423619;26;20506;-71
2024/04/12 07:39:02;;;;;;;7.47;6.07;;;21.30;1.00;;;;;;5415986;26;20445;-69
2024/04/12 07:41:37;;;;;;;6.00;4.90;;;19.60;1.00;;;;;;5415271;26;20445;-70
2024/04/12 07:44:04;;;;;;;9.40;6.37;;;18.50;1.00;;;;;;5414802;26;20445;-70
2024/04/12 07:46:33;;;;;;;7.90;6.40;;;18.20;1.00;;;;;;5415398;26;20560;-69
2024/04/12 07:49:02;;;;;;;7.97;5.77;;;18.90;1.00;;;;;;5383699;26;20573;-69
2024/04/12 07:51:31;;;;;;;9.17;6.40;;;19.70;1.00;;;;;;5415308;26;20554;-70
2024/04/12 07:54:03;;;;;;;6.40;5.80;;;20.60;1.00;;;;;;5414773;26;20855;-70
2024/04/12 07:56:37;;;;;;;7.10;6.40;;;20.30;1.00;;;;;;5384112;26;20453;-69
2024/04/12 07:59:13;;;;;;;6.47;5.87;;;19.60;1.00;;;;;;5384044;26;20815;-69
2024/04/12 08:01:40;;;;;;;7.23;5.30;;;19.40;1.00;;;;;;5415198;26;20914;-68
2024/04/12 08:04:05;;;;;;;7.63;6.53;;;19.70;1.00;;;;;;5414763;26;21040;-69
2024/04/12 08:06:55;;;;;;;9.40;6.80;;;20.20;1.00;;;;;;5414514;26;20588;-70
2024/04/12 08:09:34;;;;;;;7.20;6.60;;;20.50;1.00;;;;;;5414778;26;20727;-70
2024/04/12 08:12:23;;;;;;;6.80;5.90;;;21.20;1.00;;;;;;5383191;26;20457;-69
2024/04/12 08:14:53;;;;;;;7.40;6.37;;;23.00;1.00;;;;;;5414233;26;20453;-70
2024/04/12 08:17:25;;;;;;;8.53;5.90;;;25.00;1.00;;;;;;5414445;26;20599;-71
2024/04/12 08:19:55;;;;;;;8.63;7.63;;;26.70;1.00;;;;;;5418036;26;20844;-71
2024/04/12 08:22:25;;;;;;;7.83;7.00;;;27.20;1.00;;;;;;5417845;26;20534;-69
2024/04/12 08:24:52;;;;;;;8.17;7.37;;;;;;;;;;5417654;26;20448;-70
2024/04/12 08:27:24;;;;;;;8.23;7.40;;;;;;;;;;5386326;26;20585;-69
2024/04/12 08:29:50;;;;;;;8.67;7.87;;;;;;;;;;5417623;26;20446;-70
2024/04/12 08:32:19;;;;;;;8.27;7.57;;;29.50;1.00;;;;;;5417954;26;20464;-70
2024/04/12 08:34:45;;;;;;;8.50;7.70;;;;;;;;;;5386001;26;20461;-70
2024/04/12 08:37:18;;;;;;;7.43;6.83;;;30.80;1.00;;;;;;5417758;26;20520;-70
2024/04/12 08:39:44;;;;;;;7.40;6.77;;;31.60;1.00;;;;;;5418778;26;20452;-70
2024/04/12 08:42:28;;;;;;;7.20;6.70;;;32.70;1.00;;;;;;5418381;26;20437;-70
2024/04/12 08:44:58;;;;;;;8.50;7.80;;;32.50;1.00;;;;;;5418582;26;20515;-71
2024/04/12 08:50:13;;;;;;;9.67;8.80;;;31.20;1.00;;;;;;5419821;26;20509;-71
2024/04/12 08:52:43;;;;;;;10.00;8.57;;;28.70;1.00;;;;;;5420330;26;20453;-69
2024/04/12 08:55:17;;;;;;;17.40;10.07;;;26.40;1.00;;;;;;5385869;26;20923;-70
2024/04/12 08:57:47;;;;;;;9.33;7.57;;;23.80;1.00;;;;;;5386507;26;20496;-70
2024/04/12 09:00:18;;;;;;;12.83;9.13;;;21.30;1.00;;;;;;5417583;26;20567;-71
2024/04/12 09:02:50;;;;;;;9.23;8.23;;;20.10;1.00;;;;;;5417323;26;20517;-71
2024/04/12 09:05:24;;;;;;;9.20;8.40;;;19.20;1.00;;;;;;5418380;26;20583;-73
2024/04/12 09:07:58;;;;;;;8.33;6.60;;;18.50;1.00;;;;;;5418196;26;20533;-71
2024/04/12 09:10:25;;;;;;;8.00;7.20;;;18.40;1.00;;;;;;5417859;26;20500;-70
2024/04/12 09:12:52;;;;;;;7.93;7.10;;;18.10;1.00;;;;;;5386028;26;20959;-69
2024/04/12 09:15:24;;;;;;;8.43;6.30;;;18.20;1.00;;;;;;5417182;26;20449;-69
2024/04/12 09:20:39;;;;;;;10.90;6.90;;;17.90;1.00;;;;;;5417174;26;20510;-69
2024/04/12 09:23:14;;;;;;;18.53;8.07;;;17.80;1.00;;;;;;5385434;26;20493;-69
2024/04/12 09:25:46;;;;;;;8.07;6.83;;;17.70;1.00;;;;;;5417231;26;20453;-69
2024/04/12 09:28:16;;;;;;;10.23;7.87;;;17.80;1.00;;;;;;5417171;26;21084;-70
2024/04/12 09:33:31;;;;;;;8.77;7.33;;;17.80;1.00;;;;;;5416927;26;20490;-69
2024/04/12 09:36:03;;;;;;;10.17;6.90;;;17.90;1.00;;;;;;5417388;26;20503;-69
2024/04/12 09:38:29;;;;;;;7.80;6.40;;;18.00;1.00;;;;;;5416941;26;20473;-69
2024/04/12 09:41:03;;;;;;;10.10;6.37;;;18.30;1.00;;;;;;5416993;26;20457;-69
2024/04/12 09:43:31;;;;;;;6.60;5.47;;;18.40;1.00;;;;;;5416929;26;20505;-69
2024/04/12 09:46:08;;;;;;;6.87;6.13;;;18.60;1.00;;;;;;5386572;26;20931;-69
2024/04/12 10:38:58;;;;;;;6.50;5.20;;;20.00;1.00;;;;;;5416284;26;20501;-69
2024/04/12 10:41:33;;;;;;;6.57;5.23;;;19.90;1.00;;;;;;5385523;26;20589;-70
2024/04/12 10:43:59;;;;;;;9.20;4.97;;;20.00;1.00;;;;;;5416112;26;20504;-71
2024/04/12 10:46:24;;;;;;;4.73;4.33;;;20.20;1.00;;;;;;5416255;26;20457;-70
2024/04/12 10:48:52;;;;;;;6.70;5.30;;;20.20;1.00;;;;;;5416360;26;20760;-70
2024/04/12 10:51:19;;;;;;;8.23;5.53;;;20.10;1.00;;;;;;5416434;26;20690;-70
2024/04/12 10:53:49;;;;;;;7.00;5.67;;;20.30;1.00;;;;;;5384446;26;20465;-70
2024/04/12 10:56:18;;;;;;;8.07;7.37;;;20.10;1.00;;;;;;5416218;26;20453;-69
2024/04/12 10:58:51;;;;;;;5.47;4.97;;;20.30;1.00;;;;;;5415968;26;20555;-70
2024/04/12 11:01:23;;;;;;;5.83;5.10;;;20.40;1.00;;;;;;5416042;26;20505;-70
2024/04/12 11:03:57;;;;;;;5.60;5.00;;;20.20;1.00;;;;;;5415903;26;20454;-69
2024/04/12 11:06:30;;;;;;;7.50;4.97;;;20.50;1.00;;;;;;5415956;26;20452;-71
2024/04/12 11:08:58;;;;;;;8.23;5.03;;;20.80;1.00;;;;;;5415961;26;20450;-69
2024/04/12 11:11:31;;;;;;;6.13;5.03;;;21.20;1.00;;;;;;5384872;26;20469;-69
2024/04/12 11:13:59;;;;;;;6.70;6.10;;;21.70;1.00;;;;;;5384704;26;20461;-70
2024/04/12 11:33:19;;;;;;;7.30;6.60;;;22.90;1.00;;;;;;5415295;26;20854;-69
2024/04/12 11:35:45;;;;;;;6.23;5.60;;;22.40;1.00;;;;;;5384480;26;20461;-73
2024/04/12 11:38:13;;;;;;;6.10;5.50;;;22.30;1.00;;;;;;5416330;26;21024;-69
2024/04/12 11:40:40;;;;;;;7.03;4.87;;;22.20;1.00;;;;;;5416155;26;20462;-69
2024/04/12 11:43:06;;;;;;;6.93;5.43;;;22.50;1.00;;;;;;5415173;26;20450;-69
2024/04/12 11:45:34;;;;;;;7.83;5.53;;;22.20;1.00;;;;;;5415922;26;20453;-69
2024/04/12 11:48:00;;;;;;;7.53;5.83;;;22.30;1.00;;;;;;5416003;26;20537;-69
2024/04/12 11:50:26;;;;;;;7.20;6.00;;;22.20;1.00;;;;;;5416012;26;20980;-70
2024/04/12 11:52:54;;;;;;;5.63;5.13;;;22.40;1.00;;;;;;5416071;26;20235;-70
2024/04/12 11:55:21;;;;;;;5.83;5.33;;;22.10;1.00;;;;;;5419039;26;20505;-70
2024/04/12 11:57:46;;;;;;;6.37;5.77;;;21.90;1.00;;;;;;5387458;26;20559;-69
2024/04/12 12:00:15;;;;;;;7.70;5.67;;;22.10;1.00;;;;;;5418953;26;20453;-70
2024/04/12 12:02:44;;;;;;;5.40;4.90;;;22.20;1.00;;;;;;5387522;26;20231;-70
2024/04/12 12:05:16;;;;;;;5.60;5.10;;;22.30;1.00;;;;;;5387720;26;20836;-70
2024/04/12 12:07:44;;;;;;;7.13;5.43;;;22.30;1.00;;;;;;5387479;26;20485;-70
2024/04/12 12:10:11;;;;;;;5.83;5.23;;;22.30;1.00;;;;;;5418834;26;20505;-69
2024/04/12 12:12:37;;;;;;;6.40;4.60;;;22.50;1.00;;;;;;5418306;26;20497;-70
2024/04/12 12:15:06;;;;;;;5.83;5.33;;;22.80;1.00;;;;;;5418147;26;20987;-70
2024/04/12 12:17:32;;;;;;;7.20;5.57;;;22.80;1.00;;;;;;5386869;26;20473;-71
2024/04/12 12:19:57;;;;;;;5.73;4.77;;;22.60;1.00;;;;;;5387017;26;20457;-71
2024/04/12 12:22:23;;;;;;;5.07;4.70;;;22.70;1.00;;;;;;5418440;26;20437;-70
2024/04/12 12:24:49;;;;;;;6.10;5.07;;;22.90;1.00;;;;;;5386187;26;20235;-70
2024/04/12 12:27:23;;;;;;;5.77;4.53;;;22.80;1.00;;;;;;5418185;26;20468;-70
2024/04/12 12:29:53;;;;;;;7.70;5.13;;;22.80;1.00;;;;;;5418356;26;20512;-70
2024/04/12 12:32:26;;;;;;;5.00;4.57;;;22.80;1.00;;;;;;5417927;26;20445;-71
2024/04/12 12:34:53;;;;;;;6.30;5.80;;;22.80;1.00;;;;;;5386168;26;20469;-69
2024/04/12 12:37:18;;;;;;;5.17;4.73;;;22.80;1.00;;;;;;5386270;26;20518;-69
2024/04/12 12:39:44;;;;;;;6.13;5.03;;;22.70;1.00;;;;;;5417684;26;20714;-69
2024/04/12 12:42:10;;;;;;;4.93;4.43;;;22.70;1.00;;;;;;5417819;26;20268;-69
2024/04/12 12:44:36;;;;;;;5.77;5.27;;;22.80;1.00;;;;;;5417630;26;20514;-69
2024/04/12 12:47:08;;;;;;;4.53;4.13;;;22.80;1.00;;;;;;5417692;26;20731;-69
2024/04/12 12:49:40;;;;;;;5.37;4.33;;;22.60;1.00;;;;;;5386152;26;20907;-69
2024/04/12 12:52:12;;;;;;;3.90;3.60;;;22.40;1.00;;;;;;5417678;26;20497;-69
2024/04/12 12:54:42;;;;;;;4.63;4.33;;;22.50;1.00;;;;;;5385708;26;20530;-70
2024/04/12 12:57:14;;;;;;;5.53;4.20;;;22.70;1.00;;;;;;5417207;26;20477;-70
2024/04/12 12:59:43;;;;;;;7.13;3.97;;;22.90;1.00;;;;;;5417436;26;20469;-73
2024/04/12 13:02:13;;;;;;;5.50;5.00;;;23.00;1.00;;;;;;5385649;26;20884;-70
2024/04/12 13:04:40;;;;;;;4.50;4.10;;;23.10;1.00;;;;;;5415629;26;20505;-70
2024/04/12 13:07:07;;;;;;;6.23;3.77;;;23.10;1.00;;;;;;5417388;26;20507;-71
2024/04/12 13:09:35;;;;;;;6.13;4.33;;;23.30;1.00;;;;;;5385541;26;20477;-71
2024/04/12 13:12:09;;;;;;;4.03;3.73;;;23.30;1.00;;;;;;5416628;26;20545;-70
2024/04/12 13:14:37;;;;;;;4.87;4.47;;;23.50;1.00;;;;;;5416507;26;20465;-70
2024/04/12 13:17:11;;;;;;;4.93;3.97;;;23.40;1.00;;;;;;5416777;26;20796;-70
2024/04/12 13:19:38;;;;;;;5.03;4.23;;;23.60;1.00;;;;;;5416544;26;20802;-68
2024/04/12 13:22:04;;;;;;;4.50;4.10;;;23.50;1.00;;;;;;5416537;26;20505;-69
2024/04/12 13:24:30;;;;;;;4.30;3.90;;;23.40;1.00;;;;;;5416457;26;20457;-69
2024/04/12 13:26:59;;;;;;;7.67;4.63;;;23.50;1.00;;;;;;5416715;26;20576;-70
2024/04/12 13:29:29;;;;;;;4.40;4.00;;;23.70;1.00;;;;;;5416717;26;20573;-70
2024/04/12 13:31:57;;;;;;;4.27;3.87;;;23.90;1.00;;;;;;5385242;26;20979;-69
2024/04/12 13:34:24;;;;;;;3.87;3.57;;;23.50;1.00;;;;;;5416491;26;20449;-69
2024/04/12 13:36:52;;;;;;;3.90;3.60;;;23.60;1.00;;;;;;5385555;26;20576;-71
2024/04/12 13:39:19;;;;;;;5.87;4.00;;;23.60;1.00;;;;;;5424659;26;20537;-71
2024/04/12 13:41:45;;;;;;;5.03;4.40;;;23.70;1.00;;;;;;5425061;26;20498;-72
2024/04/12 13:44:24;;;;;;;3.93;3.50;;;23.90;1.00;;;;;;5393922;26;20456;-72
2024/04/12 13:52:25;;;;;;;4.00;3.47;;;23.90;1.00;;;;;;5425021;26;20558;-71
2024/04/12 13:54:51;;;;;;;3.73;3.33;;;23.90;1.00;;;;;;5423016;26;20504;-73
2024/04/12 13:57:17;;;;;;;10.50;3.83;;;23.80;1.00;;;;;;5390374;26;20485;-71
2024/04/12 13:59:44;;;;;;;4.53;3.67;;;23.70;1.00;;;;;;5422911;26;20453;-71
2024/04/12 14:02:11;;;;;;;7.57;4.73;;;23.90;1.00;;;;;;5422954;26;20501;-70
2024/04/12 14:04:38;;;;;;;3.40;3.20;;;24.00;1.00;;;;;;5390894;26;20505;-72
2024/04/12 14:07:04;;;;;;;4.07;3.17;;;23.90;1.00;;;;;;5423087;26;20473;-71
2024/04/12 14:09:30;;;;;;;3.83;3.17;;;23.80;1.00;;;;;;5391265;26;20578;-71
2024/04/12 14:11:56;;;;;;;3.40;3.10;;;23.80;1.00;;;;;;5422986;26;20468;-72
2024/04/12 14:14:23;;;;;;;4.40;3.73;;;23.70;1.00;;;;;;5422319;26;20220;-72
2024/04/12 14:16:51;;;;;;;4.93;4.00;;;23.80;1.00;;;;;;5422543;26;20523;-72
2024/04/12 14:19:17;;;;;;;3.70;3.40;;;24.00;1.00;;;;;;5424271;26;20567;-72
2024/04/12 14:21:48;;;;;;;4.67;3.50;;;24.00;1.00;;;;;;5393325;26;20781;-71
2024/04/12 14:27:06;;;;;;;5.17;3.17;;;23.90;1.00;;;;;;5422723;26;20522;-72
2024/04/12 14:29:33;;;;;;;3.90;3.50;;;24.20;1.00;;;;;;5421988;26;20488;-72
2024/04/12 14:32:05;;;;;;;3.40;3.20;;;24.40;1.00;;;;;;5423253;26;20571;-71
2024/04/12 14:34:32;;;;;;;3.30;3.10;;;24.70;1.00;;;;;;5421878;26;20458;-72
2024/04/12 14:37:01;;;;;;;3.77;3.40;;;24.70;1.00;;;;;;5421744;26;20509;-73
2024/04/12 14:39:31;;;;;;;3.40;3.20;;;24.60;1.00;;;;;;5422008;26;20456;-72
2024/04/12 14:42:02;;;;;;;3.23;2.93;;;24.80;1.00;;;;;;5421784;26;20804;-73